EJU736V LFLL-LFRS
Flight info
| Callsign | EJU736V |
|---|---|
| Flight time | 1h 3m |
| Altitude | 28000 |
| Route | BELEP H38 TIS DCT VALKU DCT PECNO DCT LMG DCT MANAK |
| Aircraft | A320/M-SDE2E3FGHIJ1RWXYZ/LB1 |
Departure
| Time | 2026-04-28 17:09 |
|---|---|
| Airport | Lyon Saint-Exupéry Airport (LFLL) |
Arrival
| Time | 2026-04-28 18:12 |
|---|---|
| Airport | Nantes Atlantique Airport (LFRS) |
| Time | Latitude | Longitude | Altitude | Speed | Heading |
|---|---|---|---|---|---|
| 2026-04-28 16:46 | 45.71517 | 5.08177 | 802 ft | 0 kts | 15° |
| 2026-04-28 17:02 | 45.71507 | 5.08173 | 802 ft | 4 kts | 15° |
| 2026-04-28 17:02 | 45.71474 | 5.08160 | 802 ft | 2 kts | 15° |
| 2026-04-28 17:02 | 45.71452 | 5.08150 | 802 ft | 4 kts | 36° |
| 2026-04-28 17:03 | 45.71445 | 5.08097 | 802 ft | 1 kts | 104° |
| 2026-04-28 17:05 | 45.71435 | 5.08152 | 802 ft | 10 kts | 104° |
| 2026-04-28 17:05 | 45.71417 | 5.08253 | 803 ft | 8 kts | 104° |
| 2026-04-28 17:06 | 45.71415 | 5.08475 | 807 ft | 6 kts | 94° |
| 2026-04-28 17:06 | 45.71403 | 5.08503 | 809 ft | 8 kts | 129° |
| 2026-04-28 17:06 | 45.71238 | 5.08549 | 814 ft | 13 kts | 174° |
| 2026-04-28 17:07 | 45.71143 | 5.08585 | 815 ft | 12 kts | 141° |
| 2026-04-28 17:07 | 45.71107 | 5.08692 | 816 ft | 16 kts | 103° |
| 2026-04-28 17:07 | 45.71077 | 5.08880 | 815 ft | 20 kts | 97° |
| 2026-04-28 17:07 | 45.71145 | 5.09016 | 819 ft | 18 kts | 18° |
| 2026-04-28 17:08 | 45.71272 | 5.09010 | 818 ft | 23 kts | 354° |
| 2026-04-28 17:08 | 45.71671 | 5.08959 | 815 ft | 90 kts | 355° |
| 2026-04-28 17:08 | 45.72489 | 5.08859 | 794 ft | 144 kts | 355° |
| 2026-04-28 17:08 | 45.73614 | 5.08709 | 982 ft | 171 kts | 354° |
| 2026-04-28 17:09 | 45.74802 | 5.08551 | 1668 ft | 171 kts | 355° |
| 2026-04-28 17:09 | 45.76027 | 5.08411 | 2151 ft | 187 kts | 355° |
| 2026-04-28 17:09 | 45.77398 | 5.08257 | 2464 ft | 207 kts | 356° |
| 2026-04-28 17:09 | 45.78917 | 5.08083 | 2777 ft | 231 kts | 355° |
| 2026-04-28 17:10 | 45.80557 | 5.07886 | 3406 ft | 240 kts | 355° |
| 2026-04-28 17:10 | 45.82234 | 5.07812 | 4225 ft | 244 kts | 10° |
| 2026-04-28 17:10 | 45.83727 | 5.08923 | 4981 ft | 248 kts | 48° |
| 2026-04-28 17:10 | 45.84460 | 5.11139 | 5737 ft | 253 kts | 85° |
| 2026-04-28 17:11 | 45.84121 | 5.13585 | 6508 ft | 256 kts | 121° |
| 2026-04-28 17:11 | 45.82835 | 5.15342 | 7187 ft | 265 kts | 150° |
| 2026-04-28 17:11 | 45.81033 | 5.16159 | 7677 ft | 279 kts | 178° |
| 2026-04-28 17:11 | 45.79118 | 5.15696 | 8404 ft | 285 kts | 205° |
| 2026-04-28 17:12 | 45.78019 | 5.14673 | 8904 ft | 287 kts | 224° |
| 2026-04-28 17:12 | 45.76939 | 5.12277 | 9652 ft | 291 kts | 253° |
| 2026-04-28 17:12 | 45.76739 | 5.09389 | 10378 ft | 297 kts | 271° |
| 2026-04-28 17:12 | 45.76816 | 5.06320 | 10625 ft | 320 kts | 271° |
| 2026-04-28 17:13 | 45.76921 | 5.03058 | 11118 ft | 332 kts | 271° |
| 2026-04-28 17:13 | 45.77036 | 4.99737 | 11849 ft | 335 kts | 271° |
| 2026-04-28 17:13 | 45.77151 | 4.96403 | 12573 ft | 337 kts | 271° |
| 2026-04-28 17:13 | 45.77259 | 4.93040 | 13319 ft | 339 kts | 270° |
| 2026-04-28 17:14 | 45.77357 | 4.89664 | 14014 ft | 340 kts | 270° |
| 2026-04-28 17:14 | 45.77448 | 4.86274 | 14655 ft | 339 kts | 270° |
| 2026-04-28 17:14 | 45.77531 | 4.82861 | 15253 ft | 345 kts | 270° |
| 2026-04-28 17:14 | 45.77614 | 4.79417 | 15923 ft | 347 kts | 270° |
| 2026-04-28 17:15 | 45.77701 | 4.75954 | 16572 ft | 349 kts | 270° |
| 2026-04-28 17:15 | 45.77791 | 4.72467 | 17194 ft | 351 kts | 270° |
| 2026-04-28 17:15 | 45.77881 | 4.68961 | 17798 ft | 353 kts | 269° |
| 2026-04-28 17:15 | 45.77969 | 4.65434 | 18379 ft | 355 kts | 269° |
| 2026-04-28 17:16 | 45.78056 | 4.61891 | 18943 ft | 358 kts | 269° |
| 2026-04-28 17:16 | 45.78144 | 4.58316 | 19480 ft | 361 kts | 269° |
| 2026-04-28 17:16 | 45.78233 | 4.54712 | 20007 ft | 363 kts | 269° |
| 2026-04-28 17:16 | 45.78322 | 4.51086 | 20529 ft | 366 kts | 269° |
| 2026-04-28 17:17 | 45.78411 | 4.47432 | 21018 ft | 368 kts | 269° |
| 2026-04-28 17:17 | 45.78499 | 4.43759 | 21498 ft | 371 kts | 269° |
| 2026-04-28 17:17 | 45.78587 | 4.40050 | 21958 ft | 374 kts | 269° |
| 2026-04-28 17:17 | 45.78672 | 4.36313 | 22431 ft | 376 kts | 269° |
| 2026-04-28 17:18 | 45.78753 | 4.32556 | 22879 ft | 379 kts | 269° |
| 2026-04-28 17:18 | 45.78832 | 4.28770 | 23309 ft | 382 kts | 269° |
| 2026-04-28 17:18 | 45.78911 | 4.24957 | 23746 ft | 384 kts | 269° |
| 2026-04-28 17:18 | 45.78989 | 4.21133 | 24160 ft | 386 kts | 269° |
| 2026-04-28 17:19 | 45.79068 | 4.17276 | 24568 ft | 388 kts | 269° |
| 2026-04-28 17:19 | 45.79203 | 4.13402 | 24983 ft | 391 kts | 274° |
| 2026-04-28 17:19 | 45.79720 | 4.09553 | 25390 ft | 395 kts | 279° |
| 2026-04-28 17:19 | 45.80337 | 4.05710 | 25792 ft | 396 kts | 279° |
| 2026-04-28 17:20 | 45.80954 | 4.01852 | 26197 ft | 398 kts | 279° |
| 2026-04-28 17:20 | 45.81363 | 3.99294 | 26437 ft | 399 kts | 279° |
| 2026-04-28 17:20 | 45.82187 | 3.94095 | 26941 ft | 400 kts | 279° |
| 2026-04-28 17:20 | 45.82799 | 3.90205 | 27308 ft | 401 kts | 279° |
| 2026-04-28 17:21 | 45.83409 | 3.86292 | 27668 ft | 403 kts | 279° |
| 2026-04-28 17:21 | 45.84018 | 3.82364 | 27944 ft | 404 kts | 279° |
| 2026-04-28 17:21 | 45.84621 | 3.78464 | 28002 ft | 393 kts | 279° |
| 2026-04-28 17:22 | 45.85779 | 3.71021 | 28015 ft | 377 kts | 279° |
| 2026-04-28 17:22 | 45.86908 | 3.63699 | 28008 ft | 375 kts | 279° |
| 2026-04-28 17:23 | 45.88592 | 3.52723 | 28007 ft | 375 kts | 279° |
| 2026-04-28 17:23 | 45.89761 | 3.45467 | 28002 ft | 376 kts | 279° |
| 2026-04-28 17:24 | 45.90957 | 3.38127 | 28004 ft | 375 kts | 279° |
| 2026-04-28 17:24 | 45.91537 | 3.34523 | 27998 ft | 375 kts | 279° |
| 2026-04-28 17:24 | 45.92121 | 3.30871 | 27997 ft | 375 kts | 279° |
| 2026-04-28 17:25 | 45.92704 | 3.27217 | 27996 ft | 375 kts | 279° |
| 2026-04-28 17:25 | 45.93865 | 3.19900 | 27997 ft | 376 kts | 279° |
| 2026-04-28 17:25 | 45.94442 | 3.16238 | 27996 ft | 376 kts | 279° |
| 2026-04-28 17:26 | 45.95008 | 3.12644 | 27993 ft | 376 kts | 279° |
| 2026-04-28 17:26 | 45.95597 | 3.08917 | 27998 ft | 376 kts | 279° |
| 2026-04-28 17:26 | 45.96175 | 3.05254 | 27999 ft | 376 kts | 279° |
| 2026-04-28 17:26 | 45.96748 | 3.01592 | 27997 ft | 375 kts | 279° |
| 2026-04-28 17:27 | 45.97318 | 2.97929 | 28000 ft | 375 kts | 279° |
| 2026-04-28 17:27 | 45.98452 | 2.90613 | 28000 ft | 375 kts | 279° |
| 2026-04-28 17:28 | 45.99563 | 2.83293 | 28003 ft | 373 kts | 275° |
| 2026-04-28 17:28 | 45.99652 | 2.75920 | 28000 ft | 368 kts | 264° |
| 2026-04-28 17:28 | 45.99538 | 2.72244 | 27996 ft | 368 kts | 264° |
| 2026-04-28 17:29 | 45.99429 | 2.68570 | 27996 ft | 368 kts | 264° |
| 2026-04-28 17:29 | 45.99324 | 2.64900 | 27990 ft | 368 kts | 264° |
| 2026-04-28 17:29 | 45.99216 | 2.61225 | 27996 ft | 367 kts | 264° |
| 2026-04-28 17:30 | 45.98990 | 2.53883 | 27989 ft | 367 kts | 264° |
| 2026-04-28 17:30 | 45.98768 | 2.46566 | 27994 ft | 366 kts | 264° |
| 2026-04-28 17:30 | 45.98655 | 2.42909 | 27993 ft | 366 kts | 264° |
| 2026-04-28 17:31 | 45.98540 | 2.39257 | 27990 ft | 365 kts | 264° |
| 2026-04-28 17:31 | 45.98300 | 2.31957 | 27987 ft | 365 kts | 264° |
| 2026-04-28 17:32 | 45.98060 | 2.24681 | 27985 ft | 365 kts | 264° |
| 2026-04-28 17:32 | 45.97938 | 2.21038 | 27984 ft | 365 kts | 264° |
| 2026-04-28 17:32 | 45.97813 | 2.17390 | 27986 ft | 365 kts | 264° |
| 2026-04-28 17:32 | 45.97688 | 2.13746 | 27990 ft | 365 kts | 264° |
| 2026-04-28 17:33 | 45.97564 | 2.10105 | 27990 ft | 365 kts | 264° |
| 2026-04-28 17:33 | 45.97441 | 2.06466 | 27985 ft | 364 kts | 264° |
| 2026-04-28 17:33 | 45.97316 | 2.02840 | 27983 ft | 364 kts | 264° |
| 2026-04-28 17:33 | 45.97231 | 2.00433 | 27982 ft | 364 kts | 264° |
| 2026-04-28 17:34 | 45.97055 | 1.95580 | 27981 ft | 364 kts | 264° |
| 2026-04-28 17:34 | 45.96924 | 1.91950 | 27978 ft | 363 kts | 264° |
| 2026-04-28 17:34 | 45.96792 | 1.88321 | 27974 ft | 363 kts | 263° |
| 2026-04-28 17:34 | 45.96425 | 1.84757 | 27970 ft | 359 kts | 253° |
| 2026-04-28 17:35 | 45.95802 | 1.81283 | 27966 ft | 359 kts | 253° |
| 2026-04-28 17:35 | 45.95180 | 1.77807 | 27963 ft | 359 kts | 253° |
| 2026-04-28 17:35 | 45.94563 | 1.74336 | 27962 ft | 359 kts | 253° |
| 2026-04-28 17:35 | 45.93947 | 1.70858 | 27960 ft | 359 kts | 253° |
| 2026-04-28 17:36 | 45.93332 | 1.67375 | 27958 ft | 360 kts | 253° |
| 2026-04-28 17:36 | 45.92724 | 1.63944 | 27956 ft | 360 kts | 253° |
| 2026-04-28 17:36 | 45.92105 | 1.60475 | 27951 ft | 358 kts | 253° |
| 2026-04-28 17:36 | 45.91483 | 1.57008 | 27948 ft | 358 kts | 253° |
| 2026-04-28 17:37 | 45.90863 | 1.53542 | 27946 ft | 359 kts | 253° |
| 2026-04-28 17:37 | 45.90239 | 1.50066 | 27948 ft | 360 kts | 253° |
| 2026-04-28 17:37 | 45.89611 | 1.46583 | 27948 ft | 360 kts | 253° |
| 2026-04-28 17:37 | 45.88983 | 1.43103 | 27950 ft | 360 kts | 253° |
| 2026-04-28 17:38 | 45.88354 | 1.39628 | 27950 ft | 361 kts | 253° |
| 2026-04-28 17:38 | 45.87723 | 1.36142 | 27949 ft | 361 kts | 253° |
| 2026-04-28 17:38 | 45.87090 | 1.32654 | 27950 ft | 361 kts | 253° |
| 2026-04-28 17:38 | 45.86723 | 1.30632 | 27950 ft | 361 kts | 253° |
| 2026-04-28 17:39 | 45.86089 | 1.27140 | 27957 ft | 362 kts | 253° |
| 2026-04-28 17:39 | 45.85453 | 1.23649 | 27954 ft | 362 kts | 253° |
| 2026-04-28 17:39 | 45.84182 | 1.16669 | 27956 ft | 362 kts | 253° |
| 2026-04-28 17:40 | 45.83543 | 1.13175 | 27957 ft | 362 kts | 253° |
| 2026-04-28 17:40 | 45.82900 | 1.09683 | 27957 ft | 362 kts | 253° |
| 2026-04-28 17:40 | 45.82294 | 1.06178 | 27958 ft | 363 kts | 257° |
| 2026-04-28 17:40 | 45.82083 | 1.02557 | 27958 ft | 367 kts | 268° |
| 2026-04-28 17:41 | 45.82396 | 0.98903 | 27960 ft | 373 kts | 278° |
| 2026-04-28 17:41 | 45.83130 | 0.95323 | 27959 ft | 375 kts | 282° |
| 2026-04-28 17:41 | 45.83893 | 0.91750 | 27959 ft | 375 kts | 282° |
| 2026-04-28 17:41 | 45.84649 | 0.88179 | 27959 ft | 375 kts | 281° |
| 2026-04-28 17:42 | 45.85403 | 0.84600 | 27960 ft | 375 kts | 281° |
| 2026-04-28 17:42 | 45.85901 | 0.82229 | 27959 ft | 374 kts | 281° |
| 2026-04-28 17:42 | 45.86902 | 0.77446 | 27960 ft | 374 kts | 281° |
| 2026-04-28 17:42 | 45.87648 | 0.73868 | 27958 ft | 374 kts | 281° |
| 2026-04-28 17:43 | 45.88393 | 0.70287 | 27959 ft | 374 kts | 281° |
| 2026-04-28 17:43 | 45.89134 | 0.66728 | 27952 ft | 371 kts | 281° |
| 2026-04-28 17:43 | 45.89872 | 0.63176 | 27943 ft | 371 kts | 281° |
| 2026-04-28 17:43 | 45.90608 | 0.59613 | 27938 ft | 374 kts | 281° |
| 2026-04-28 17:44 | 45.91338 | 0.56086 | 27941 ft | 373 kts | 281° |
| 2026-04-28 17:44 | 45.92087 | 0.52474 | 27933 ft | 371 kts | 281° |
| 2026-04-28 17:44 | 45.92814 | 0.48965 | 27932 ft | 371 kts | 281° |
| 2026-04-28 17:44 | 45.93562 | 0.45360 | 27930 ft | 372 kts | 281° |
| 2026-04-28 17:45 | 45.94296 | 0.41802 | 27932 ft | 372 kts | 280° |
| 2026-04-28 17:45 | 45.95020 | 0.38275 | 27933 ft | 373 kts | 280° |
| 2026-04-28 17:45 | 45.95752 | 0.34700 | 27933 ft | 373 kts | 280° |
| 2026-04-28 17:45 | 45.96482 | 0.31128 | 27934 ft | 373 kts | 280° |
| 2026-04-28 17:46 | 45.97213 | 0.27546 | 27946 ft | 373 kts | 280° |
| 2026-04-28 17:46 | 45.97944 | 0.23964 | 27939 ft | 373 kts | 280° |
| 2026-04-28 17:46 | 45.98676 | 0.20381 | 27945 ft | 373 kts | 280° |
| 2026-04-28 17:46 | 45.99416 | 0.16759 | 27940 ft | 373 kts | 280° |
| 2026-04-28 17:47 | 46.00134 | 0.13223 | 27940 ft | 373 kts | 280° |
| 2026-04-28 17:47 | 46.00860 | 0.09638 | 27941 ft | 373 kts | 280° |
| 2026-04-28 17:47 | 46.01584 | 0.06061 | 27942 ft | 373 kts | 280° |
| 2026-04-28 17:47 | 46.02072 | 0.03638 | 27942 ft | 373 kts | 280° |
| 2026-04-28 17:48 | 46.03027 | -0.01114 | 27946 ft | 373 kts | 280° |
| 2026-04-28 17:48 | 46.03747 | -0.04701 | 27949 ft | 373 kts | 279° |
| 2026-04-28 17:48 | 46.04467 | -0.08279 | 27959 ft | 372 kts | 279° |
| 2026-04-28 17:48 | 46.05183 | -0.11839 | 27966 ft | 370 kts | 279° |
| 2026-04-28 17:49 | 46.05897 | -0.15381 | 27773 ft | 364 kts | 279° |
| 2026-04-28 17:49 | 46.06595 | -0.18839 | 27523 ft | 355 kts | 279° |
| 2026-04-28 17:49 | 46.07274 | -0.22219 | 27273 ft | 348 kts | 279° |
| 2026-04-28 17:49 | 46.07940 | -0.25554 | 27021 ft | 345 kts | 279° |
| 2026-04-28 17:50 | 46.08599 | -0.28866 | 26771 ft | 344 kts | 279° |
| 2026-04-28 17:50 | 46.09247 | -0.32146 | 26511 ft | 337 kts | 279° |
| 2026-04-28 17:50 | 46.09884 | -0.35371 | 26130 ft | 332 kts | 279° |
| 2026-04-28 17:50 | 46.10511 | -0.38557 | 25743 ft | 329 kts | 279° |
| 2026-04-28 17:51 | 46.11130 | -0.41709 | 25341 ft | 325 kts | 279° |
| 2026-04-28 17:51 | 46.11743 | -0.44832 | 24949 ft | 322 kts | 279° |
| 2026-04-28 17:51 | 46.12350 | -0.47926 | 24553 ft | 319 kts | 279° |
| 2026-04-28 17:51 | 46.12952 | -0.50989 | 24148 ft | 317 kts | 279° |
| 2026-04-28 17:52 | 46.13549 | -0.54035 | 23749 ft | 314 kts | 279° |
| 2026-04-28 17:52 | 46.14142 | -0.57057 | 23349 ft | 312 kts | 279° |
| 2026-04-28 17:52 | 46.15309 | -0.63028 | 22561 ft | 307 kts | 279° |
| 2026-04-28 17:53 | 46.15884 | -0.65981 | 22176 ft | 305 kts | 279° |
| 2026-04-28 17:53 | 46.16455 | -0.68912 | 21803 ft | 303 kts | 279° |
| 2026-04-28 17:53 | 46.17025 | -0.71829 | 21428 ft | 301 kts | 279° |
| 2026-04-28 17:53 | 46.17588 | -0.74725 | 21057 ft | 299 kts | 280° |
| 2026-04-28 17:54 | 46.18147 | -0.77613 | 20684 ft | 298 kts | 280° |
| 2026-04-28 17:54 | 46.18701 | -0.80488 | 20320 ft | 297 kts | 280° |
| 2026-04-28 17:54 | 46.19252 | -0.83351 | 19953 ft | 295 kts | 280° |
| 2026-04-28 17:54 | 46.19798 | -0.86198 | 19586 ft | 294 kts | 280° |
| 2026-04-28 17:55 | 46.20344 | -0.89044 | 19225 ft | 294 kts | 281° |
| 2026-04-28 17:55 | 46.21056 | -0.91823 | 18865 ft | 297 kts | 290° |
| 2026-04-28 17:55 | 46.22125 | -0.94396 | 18511 ft | 302 kts | 301° |
| 2026-04-28 17:55 | 46.23532 | -0.96673 | 18156 ft | 307 kts | 312° |
| 2026-04-28 17:56 | 46.25192 | -0.98635 | 17798 ft | 308 kts | 316° |
| 2026-04-28 17:56 | 46.26871 | -1.00561 | 17443 ft | 308 kts | 316° |
| 2026-04-28 17:56 | 46.28542 | -1.02488 | 17100 ft | 307 kts | 316° |
| 2026-04-28 17:56 | 46.30204 | -1.04415 | 16753 ft | 307 kts | 316° |
| 2026-04-28 17:57 | 46.31305 | -1.05696 | 16516 ft | 306 kts | 316° |
| 2026-04-28 17:57 | 46.32960 | -1.07622 | 16178 ft | 305 kts | 317° |
| 2026-04-28 17:57 | 46.34614 | -1.09543 | 15841 ft | 305 kts | 317° |
| 2026-04-28 17:57 | 46.36266 | -1.11460 | 15504 ft | 304 kts | 317° |
| 2026-04-28 17:58 | 46.37915 | -1.13372 | 15168 ft | 303 kts | 317° |
| 2026-04-28 17:58 | 46.39555 | -1.15275 | 14836 ft | 302 kts | 317° |
| 2026-04-28 17:58 | 46.41191 | -1.17176 | 14518 ft | 301 kts | 318° |
| 2026-04-28 17:58 | 46.42820 | -1.19073 | 14187 ft | 300 kts | 318° |
| 2026-04-28 17:59 | 46.44441 | -1.20971 | 13856 ft | 299 kts | 318° |
| 2026-04-28 17:59 | 46.46058 | -1.22862 | 13530 ft | 298 kts | 319° |
| 2026-04-28 17:59 | 46.47671 | -1.24747 | 13195 ft | 297 kts | 319° |
| 2026-04-28 17:59 | 46.49279 | -1.26626 | 12870 ft | 296 kts | 319° |
| 2026-04-28 18:00 | 46.50876 | -1.28496 | 12542 ft | 294 kts | 319° |
| 2026-04-28 18:00 | 46.52463 | -1.30353 | 12208 ft | 293 kts | 320° |
| 2026-04-28 18:00 | 46.54046 | -1.32208 | 11875 ft | 292 kts | 320° |
| 2026-04-28 18:00 | 46.55622 | -1.34056 | 11543 ft | 290 kts | 320° |
| 2026-04-28 18:01 | 46.57192 | -1.35896 | 11192 ft | 289 kts | 320° |
| 2026-04-28 18:01 | 46.58754 | -1.37733 | 10868 ft | 288 kts | 322° |
| 2026-04-28 18:01 | 46.60466 | -1.39212 | 10527 ft | 286 kts | 338° |
| 2026-04-28 18:01 | 46.62369 | -1.40039 | 10180 ft | 285 kts | 345° |
| 2026-04-28 18:02 | 46.64286 | -1.40757 | 9821 ft | 284 kts | 345° |
| 2026-04-28 18:02 | 46.66190 | -1.41480 | 9470 ft | 282 kts | 345° |
| 2026-04-28 18:02 | 46.68087 | -1.42204 | 9103 ft | 281 kts | 346° |
| 2026-04-28 18:02 | 46.69973 | -1.42949 | 8754 ft | 280 kts | 343° |
| 2026-04-28 18:03 | 46.71744 | -1.44169 | 8358 ft | 281 kts | 328° |
| 2026-04-28 18:03 | 46.73302 | -1.45894 | 7982 ft | 281 kts | 323° |
| 2026-04-28 18:03 | 46.74823 | -1.47649 | 7599 ft | 282 kts | 323° |
| 2026-04-28 18:03 | 46.76360 | -1.49428 | 7192 ft | 282 kts | 323° |
| 2026-04-28 18:04 | 46.77893 | -1.51203 | 6776 ft | 281 kts | 323° |
| 2026-04-28 18:04 | 46.79425 | -1.52973 | 6368 ft | 281 kts | 324° |
| 2026-04-28 18:04 | 46.80946 | -1.54733 | 5988 ft | 278 kts | 324° |
| 2026-04-28 18:04 | 46.82438 | -1.56458 | 5543 ft | 269 kts | 324° |
| 2026-04-28 18:05 | 46.83911 | -1.58154 | 5110 ft | 270 kts | 324° |
| 2026-04-28 18:05 | 46.84905 | -1.59300 | 4834 ft | 270 kts | 324° |
| 2026-04-28 18:05 | 46.86871 | -1.61573 | 4256 ft | 269 kts | 324° |
| 2026-04-28 18:05 | 46.88318 | -1.63250 | 3830 ft | 269 kts | 324° |
| 2026-04-28 18:06 | 46.89773 | -1.64937 | 3568 ft | 261 kts | 324° |
| 2026-04-28 18:06 | 46.91151 | -1.66546 | 3514 ft | 246 kts | 324° |
| 2026-04-28 18:06 | 46.92455 | -1.68072 | 3415 ft | 234 kts | 324° |
| 2026-04-28 18:06 | 46.93703 | -1.69533 | 3316 ft | 228 kts | 324° |
| 2026-04-28 18:07 | 46.94937 | -1.70967 | 3221 ft | 226 kts | 325° |
| 2026-04-28 18:07 | 46.96197 | -1.72330 | 3123 ft | 221 kts | 334° |
| 2026-04-28 18:07 | 46.97591 | -1.73067 | 3031 ft | 208 kts | 354° |
| 2026-04-28 18:07 | 46.98976 | -1.73091 | 3023 ft | 190 kts | 12° |
| 2026-04-28 18:08 | 47.00170 | -1.72563 | 3005 ft | 171 kts | 27° |
| 2026-04-28 18:08 | 47.01194 | -1.71793 | 2873 ft | 162 kts | 28° |
| 2026-04-28 18:08 | 47.02177 | -1.71049 | 2696 ft | 157 kts | 28° |
| 2026-04-28 18:08 | 47.03130 | -1.70326 | 2497 ft | 151 kts | 28° |
| 2026-04-28 18:09 | 47.04037 | -1.69640 | 2339 ft | 142 kts | 28° |
| 2026-04-28 18:09 | 47.04900 | -1.68986 | 2133 ft | 138 kts | 28° |
| 2026-04-28 18:09 | 47.05752 | -1.68341 | 1947 ft | 137 kts | 28° |
| 2026-04-28 18:09 | 47.06597 | -1.67699 | 1769 ft | 137 kts | 28° |
| 2026-04-28 18:10 | 47.07443 | -1.67057 | 1584 ft | 137 kts | 28° |
| 2026-04-28 18:10 | 47.08287 | -1.66417 | 1409 ft | 137 kts | 28° |
| 2026-04-28 18:10 | 47.09136 | -1.65773 | 1219 ft | 138 kts | 28° |
| 2026-04-28 18:10 | 47.09986 | -1.65128 | 1037 ft | 137 kts | 28° |
| 2026-04-28 18:11 | 47.10834 | -1.64484 | 839 ft | 137 kts | 28° |
| 2026-04-28 18:11 | 47.11681 | -1.63840 | 670 ft | 137 kts | 28° |
| 2026-04-28 18:11 | 47.12528 | -1.63197 | 490 ft | 137 kts | 28° |
| 2026-04-28 18:11 | 47.13382 | -1.62558 | 320 ft | 138 kts | 28° |
| 2026-04-28 18:12 | 47.14236 | -1.61897 | 143 ft | 138 kts | 28° |
| 2026-04-28 18:12 | 47.15059 | -1.61274 | 89 ft | 122 kts | 28° |
| 2026-04-28 18:12 | 47.15664 | -1.60807 | 88 ft | 74 kts | 27° |
| 2026-04-28 18:12 | 47.15888 | -1.60637 | 84 ft | 23 kts | 27° |
| 2026-04-28 18:13 | 47.16012 | -1.60530 | 87 ft | 8 kts | 70° |
| 2026-04-28 18:13 | 47.16000 | -1.60470 | 88 ft | 4 kts | 107° |
| 2026-04-28 18:13 | 47.15999 | -1.60464 | 87 ft | 0 kts | 107° |
| 2026-04-28 18:13 | 47.15998 | -1.60461 | 87 ft | 2 kts | 107° |
| 2026-04-28 18:14 | 47.15993 | -1.60447 | 90 ft | 3 kts | 119° |
| 2026-04-28 18:14 | 47.15976 | -1.60404 | 89 ft | 7 kts | 119° |
| 2026-04-28 18:14 | 47.15941 | -1.60349 | 91 ft | 10 kts | 168° |
| 2026-04-28 18:14 | 47.15873 | -1.60381 | 89 ft | 10 kts | 207° |
| 2026-04-28 18:15 | 47.15810 | -1.60429 | 91 ft | 11 kts | 208° |
| 2026-04-28 18:15 | 47.15735 | -1.60487 | 91 ft | 15 kts | 208° |
| 2026-04-28 18:15 | 47.15643 | -1.60558 | 89 ft | 16 kts | 207° |
| 2026-04-28 18:15 | 47.15595 | -1.60555 | 92 ft | 8 kts | 128° |
| 2026-04-28 18:16 | 47.15550 | -1.60465 | 92 ft | 10 kts | 126° |
| 2026-04-28 18:16 | 47.15523 | -1.60362 | 91 ft | 13 kts | 84° |
| 2026-04-28 18:16 | 47.15578 | -1.60274 | 90 ft | 7 kts | 12° |
| 2026-04-28 18:16 | 47.15626 | -1.60267 | 93 ft | 6 kts | 9° |
| 2026-04-28 18:17 | 47.15658 | -1.60241 | 92 ft | 5 kts | 34° |
| 2026-04-28 18:17 | 47.15674 | -1.60226 | 90 ft | 1 kts | 34° |
| 2026-04-28 18:17 | 47.15677 | -1.60222 | 90 ft | 0 kts | 35° |